sensor_id;sensor_type;location;lat;lon;timestamp;temperature;humidity
39095;DHT22;24840;47.508;19.376;2022-07-18T00:01:49;11.80;91.50
39095;DHT22;24840;47.508;19.376;2022-07-18T00:04:15;11.60;92.40
39095;DHT22;24840;47.508;19.376;2022-07-18T00:06:41;11.80;92.00
39095;DHT22;24840;47.508;19.376;2022-07-18T00:09:07;11.80;92.20
39095;DHT22;24840;47.508;19.376;2022-07-18T00:11:33;11.70;92.20
39095;DHT22;24840;47.508;19.376;2022-07-18T00:13:59;11.70;92.00
39095;DHT22;24840;47.508;19.376;2022-07-18T00:16:25;11.60;92.20
39095;DHT22;24840;47.508;19.376;2022-07-18T00:18:51;11.60;92.10
39095;DHT22;24840;47.508;19.376;2022-07-18T00:21:17;11.70;92.10
39095;DHT22;24840;47.508;19.376;2022-07-18T00:23:43;11.70;92.00
39095;DHT22;24840;47.508;19.376;2022-07-18T00:26:09;11.60;92.30
39095;DHT22;24840;47.508;19.376;2022-07-18T00:28:35;11.60;92.20
39095;DHT22;24840;47.508;19.376;2022-07-18T00:31:01;11.30;92.90
39095;DHT22;24840;47.508;19.376;2022-07-18T00:33:27;11.20;93.30
39095;DHT22;24840;47.508;19.376;2022-07-18T00:35:53;11.10;93.60
39095;DHT22;24840;47.508;19.376;2022-07-18T00:38:19;11.10;93.80
39095;DHT22;24840;47.508;19.376;2022-07-18T00:40:45;11.20;93.70
39095;DHT22;24840;47.508;19.376;2022-07-18T00:43:14;11.20;93.50
39095;DHT22;24840;47.508;19.376;2022-07-18T00:45:45;11.30;93.50
39095;DHT22;24840;47.508;19.376;2022-07-18T00:48:12;11.20;93.50
39095;DHT22;24840;47.508;19.376;2022-07-18T00:50:38;11.10;93.80
39095;DHT22;24840;47.508;19.376;2022-07-18T00:53:04;11.10;94.20
39095;DHT22;24840;47.508;19.376;2022-07-18T00:55:31;11.20;93.50
39095;DHT22;24840;47.508;19.376;2022-07-18T00:57:58;11.20;93.70
39095;DHT22;24840;47.508;19.376;2022-07-18T01:00:24;11.30;93.50
39095;DHT22;24840;47.508;19.376;2022-07-18T01:03:09;11.20;93.80
39095;DHT22;24840;47.508;19.376;2022-07-18T01:05:35;11.30;93.50
39095;DHT22;24840;47.508;19.376;2022-07-18T01:08:01;11.30;93.90
39095;DHT22;24840;47.508;19.376;2022-07-18T01:10:27;11.20;94.10
39095;DHT22;24840;47.508;19.376;2022-07-18T01:12:53;11.10;94.00
39095;DHT22;24840;47.508;19.376;2022-07-18T01:15:19;11.00;94.50
39095;DHT22;24840;47.508;19.376;2022-07-18T01:17:45;11.10;94.50
39095;DHT22;24840;47.508;19.376;2022-07-18T01:20:12;11.20;94.40
39095;DHT22;24840;47.508;19.376;2022-07-18T01:22:38;11.10;94.60
39095;DHT22;24840;47.508;19.376;2022-07-18T01:25:07;11.10;94.60
39095;DHT22;24840;47.508;19.376;2022-07-18T01:27:33;11.40;94.20
39095;DHT22;24840;47.508;19.376;2022-07-18T01:29:59;11.30;94.50
39095;DHT22;24840;47.508;19.376;2022-07-18T01:32:27;11.30;94.20
39095;DHT22;24840;47.508;19.376;2022-07-18T01:34:53;11.10;94.60
39095;DHT22;24840;47.508;19.376;2022-07-18T01:37:19;11.30;94.70
39095;DHT22;24840;47.508;19.376;2022-07-18T01:39:46;11.10;94.60
39095;DHT22;24840;47.508;19.376;2022-07-18T01:42:13;11.10;95.10
39095;DHT22;24840;47.508;19.376;2022-07-18T01:44:39;10.90;95.60
39095;DHT22;24840;47.508;19.376;2022-07-18T01:47:07;11.00;95.70
39095;DHT22;24840;47.508;19.376;2022-07-18T01:49:34;11.00;95.60
39095;DHT22;24840;47.508;19.376;2022-07-18T01:52:01;10.80;96.20
39095;DHT22;24840;47.508;19.376;2022-07-18T01:54:30;10.60;97.00
39095;DHT22;24840;47.508;19.376;2022-07-18T01:56:57;10.60;97.10
39095;DHT22;24840;47.508;19.376;2022-07-18T01:59:24;10.80;96.50
39095;DHT22;24840;47.508;19.376;2022-07-18T02:01:51;10.60;97.30
39095;DHT22;24840;47.508;19.376;2022-07-18T02:04:17;10.60;97.50
39095;DHT22;24840;47.508;19.376;2022-07-18T02:06:43;10.60;97.50
39095;DHT22;24840;47.508;19.376;2022-07-18T02:09:09;10.50;97.50
39095;DHT22;24840;47.508;19.376;2022-07-18T02:11:36;10.50;97.60
39095;DHT22;24840;47.508;19.376;2022-07-18T02:14:03;10.50;97.80
39095;DHT22;24840;47.508;19.376;2022-07-18T02:16:30;10.40;98.30
39095;DHT22;24840;47.508;19.376;2022-07-18T02:18:56;10.40;98.80
39095;DHT22;24840;47.508;19.376;2022-07-18T02:21:23;10.40;98.80
39095;DHT22;24840;47.508;19.376;2022-07-18T02:23:49;10.30;98.90
39095;DHT22;24840;47.508;19.376;2022-07-18T02:26:17;10.40;98.50
39095;DHT22;24840;47.508;19.376;2022-07-18T02:28:43;10.20;99.20
39095;DHT22;24840;47.508;19.376;2022-07-18T02:31:09;10.30;98.90
39095;DHT22;24840;47.508;19.376;2022-07-18T02:33:35;10.30;99.00
39095;DHT22;24840;47.508;19.376;2022-07-18T02:36:01;10.50;98.60
39095;DHT22;24840;47.508;19.376;2022-07-18T02:38:27;10.40;98.50
39095;DHT22;24840;47.508;19.376;2022-07-18T02:40:53;10.40;98.20
39095;DHT22;24840;47.508;19.376;2022-07-18T02:43:19;10.50;98.70
39095;DHT22;24840;47.508;19.376;2022-07-18T02:45:45;10.60;98.30
39095;DHT22;24840;47.508;19.376;2022-07-18T02:48:11;10.40;98.70
39095;DHT22;24840;47.508;19.376;2022-07-18T02:50:37;10.40;98.60
39095;DHT22;24840;47.508;19.376;2022-07-18T02:53:03;10.40;98.90
39095;DHT22;24840;47.508;19.376;2022-07-18T02:55:29;10.40;98.70
39095;DHT22;24840;47.508;19.376;2022-07-18T02:57:55;10.30;98.90
39095;DHT22;24840;47.508;19.376;2022-07-18T03:00:21;10.40;98.60
39095;DHT22;24840;47.508;19.376;2022-07-18T03:02:47;10.30;98.60
39095;DHT22;24840;47.508;19.376;2022-07-18T03:05:13;10.50;98.80
39095;DHT22;24840;47.508;19.376;2022-07-18T03:07:39;10.40;98.70
39095;DHT22;24840;47.508;19.376;2022-07-18T03:10:06;10.20;99.00
39095;DHT22;24840;47.508;19.376;2022-07-18T03:12:32;10.20;99.20
39095;DHT22;24840;47.508;19.376;2022-07-18T03:14:58;10.30;99.40
39095;DHT22;24840;47.508;19.376;2022-07-18T03:17:25;10.30;99.40
39095;DHT22;24840;47.508;19.376;2022-07-18T03:19:51;10.00;99.90
39095;DHT22;24840;47.508;19.376;2022-07-18T03:22:17;10.30;99.90
39095;DHT22;24840;47.508;19.376;2022-07-18T03:24:43;10.50;99.20
39095;DHT22;24840;47.508;19.376;2022-07-18T03:27:09;10.50;99.10
39095;DHT22;24840;47.508;19.376;2022-07-18T03:29:35;10.50;99.10
39095;DHT22;24840;47.508;19.376;2022-07-18T03:32:01;10.70;98.80
39095;DHT22;24840;47.508;19.376;2022-07-18T03:34:26;10.50;99.30
39095;DHT22;24840;47.508;19.376;2022-07-18T03:36:52;10.50;99.60
39095;DHT22;24840;47.508;19.376;2022-07-18T03:39:18;10.40;99.90
39095;DHT22;24840;47.508;19.376;2022-07-18T03:41:44;10.60;99.60
39095;DHT22;24840;47.508;19.376;2022-07-18T03:44:10;10.90;98.80
39095;DHT22;24840;47.508;19.376;2022-07-18T03:46:36;11.00;98.80
39095;DHT22;24840;47.508;19.376;2022-07-18T03:49:03;10.80;99.00
39095;DHT22;24840;47.508;19.376;2022-07-18T03:51:29;10.90;99.10
39095;DHT22;24840;47.508;19.376;2022-07-18T03:53:54;10.80;99.10
39095;DHT22;24840;47.508;19.376;2022-07-18T03:56:20;11.00;98.90
39095;DHT22;24840;47.508;19.376;2022-07-18T03:58:47;10.90;99.10
39095;DHT22;24840;47.508;19.376;2022-07-18T04:01:13;10.80;99.60
39095;DHT22;24840;47.508;19.376;2022-07-18T04:03:39;10.80;99.90
39095;DHT22;24840;47.508;19.376;2022-07-18T04:06:05;11.20;99.80
39095;DHT22;24840;47.508;19.376;2022-07-18T04:08:31;11.30;99.30
39095;DHT22;24840;47.508;19.376;2022-07-18T04:10:57;11.30;99.50
39095;DHT22;24840;47.508;19.376;2022-07-18T04:13:23;11.40;99.60
39095;DHT22;24840;47.508;19.376;2022-07-18T04:15:49;11.40;99.70
39095;DHT22;24840;47.508;19.376;2022-07-18T04:18:15;11.50;99.70
39095;DHT22;24840;47.508;19.376;2022-07-18T04:20:41;11.50;99.60
39095;DHT22;24840;47.508;19.376;2022-07-18T04:23:08;11.60;99.50
39095;DHT22;24840;47.508;19.376;2022-07-18T04:25:39;11.70;99.30
39095;DHT22;24840;47.508;19.376;2022-07-18T04:28:09;11.70;99.60
39095;DHT22;24840;47.508;19.376;2022-07-18T04:30:35;11.80;99.90
39095;DHT22;24840;47.508;19.376;2022-07-18T04:33:03;11.90;99.50
39095;DHT22;24840;47.508;19.376;2022-07-18T04:35:30;11.80;99.80
39095;DHT22;24840;47.508;19.376;2022-07-18T04:37:56;12.00;99.50
39095;DHT22;24840;47.508;19.376;2022-07-18T04:40:22;12.20;99.30
39095;DHT22;24840;47.508;19.376;2022-07-18T04:42:48;12.20;99.10
39095;DHT22;24840;47.508;19.376;2022-07-18T04:45:14;12.30;99.10
39095;DHT22;24840;47.508;19.376;2022-07-18T04:47:41;12.30;99.70
39095;DHT22;24840;47.508;19.376;2022-07-18T04:50:08;12.40;99.10
39095;DHT22;24840;47.508;19.376;2022-07-18T04:52:38;12.60;99.00
39095;DHT22;24840;47.508;19.376;2022-07-18T04:55:05;12.70;99.20
39095;DHT22;24840;47.508;19.376;2022-07-18T04:57:33;12.70;99.30
39095;DHT22;24840;47.508;19.376;2022-07-18T05:00:01;13.00;99.30
39095;DHT22;24840;47.508;19.376;2022-07-18T05:02:27;13.10;99.50
39095;DHT22;24840;47.508;19.376;2022-07-18T05:04:53;13.50;98.40
39095;DHT22;24840;47.508;19.376;2022-07-18T05:07:19;13.60;97.90
39095;DHT22;24840;47.508;19.376;2022-07-18T05:09:45;13.70;98.10
39095;DHT22;24840;47.508;19.376;2022-07-18T05:12:11;13.90;97.80
39095;DHT22;24840;47.508;19.376;2022-07-18T05:14:37;14.20;96.20
39095;DHT22;24840;47.508;19.376;2022-07-18T05:17:03;14.70;95.70
39095;DHT22;24840;47.508;19.376;2022-07-18T05:19:29;15.00;95.60
39095;DHT22;24840;47.508;19.376;2022-07-18T05:21:55;15.20;95.10
39095;DHT22;24840;47.508;19.376;2022-07-18T05:24:21;15.40;93.80
39095;DHT22;24840;47.508;19.376;2022-07-18T05:26:47;15.80;92.30
39095;DHT22;24840;47.508;19.376;2022-07-18T05:29:13;16.20;91.20
39095;DHT22;24840;47.508;19.376;2022-07-18T05:31:42;16.60;87.40
39095;DHT22;24840;47.508;19.376;2022-07-18T05:34:10;17.20;84.70
39095;DHT22;24840;47.508;19.376;2022-07-18T05:36:36;17.40;82.50
39095;DHT22;24840;47.508;19.376;2022-07-18T05:39:03;17.60;82.60
39095;DHT22;24840;47.508;19.376;2022-07-18T05:41:29;17.80;80.60
39095;DHT22;24840;47.508;19.376;2022-07-18T05:43:55;18.10;79.20
39095;DHT22;24840;47.508;19.376;2022-07-18T05:46:21;18.20;79.70
39095;DHT22;24840;47.508;19.376;2022-07-18T05:48:48;18.40;78.70
39095;DHT22;24840;47.508;19.376;2022-07-18T05:51:14;18.70;74.80
39095;DHT22;24840;47.508;19.376;2022-07-18T05:53:40;19.00;74.40
39095;DHT22;24840;47.508;19.376;2022-07-18T05:56:06;19.10;77.30
39095;DHT22;24840;47.508;19.376;2022-07-18T05:58:33;19.30;75.10
39095;DHT22;24840;47.508;19.376;2022-07-18T06:00:59;19.50;75.00
39095;DHT22;24840;47.508;19.376;2022-07-18T06:03:26;19.70;72.20
39095;DHT22;24840;47.508;19.376;2022-07-18T06:05:52;19.90;70.20
39095;DHT22;24840;47.508;19.376;2022-07-18T06:08:18;20.10;71.40
39095;DHT22;24840;47.508;19.376;2022-07-18T06:10:44;20.30;69.40
39095;DHT22;24840;47.508;19.376;2022-07-18T06:13:10;20.40;67.40
39095;DHT22;24840;47.508;19.376;2022-07-18T06:15:36;20.60;67.30
39095;DHT22;24840;47.508;19.376;2022-07-18T06:18:03;20.80;65.80
39095;DHT22;24840;47.508;19.376;2022-07-18T06:20:29;21.10;66.60
39095;DHT22;24840;47.508;19.376;2022-07-18T06:22:55;21.30;65.10
39095;DHT22;24840;47.508;19.376;2022-07-18T06:25:21;21.30;63.50
39095;DHT22;24840;47.508;19.376;2022-07-18T06:27:47;21.40;63.40
39095;DHT22;24840;47.508;19.376;2022-07-18T06:30:13;21.60;63.60
39095;DHT22;24840;47.508;19.376;2022-07-18T06:32:40;21.80;64.00
39095;DHT22;24840;47.508;19.376;2022-07-18T06:35:08;21.90;63.20
39095;DHT22;24840;47.508;19.376;2022-07-18T06:37:34;22.20;61.90
39095;DHT22;24840;47.508;19.376;2022-07-18T06:40:00;22.50;61.30
39095;DHT22;24840;47.508;19.376;2022-07-18T06:42:26;22.60;61.00
39095;DHT22;24840;47.508;19.376;2022-07-18T06:44:52;22.70;60.10
39095;DHT22;24840;47.508;19.376;2022-07-18T06:47:19;22.80;61.70
39095;DHT22;24840;47.508;19.376;2022-07-18T06:49:45;22.80;59.00
39095;DHT22;24840;47.508;19.376;2022-07-18T06:52:11;22.90;59.70
39095;DHT22;24840;47.508;19.376;2022-07-18T06:54:38;23.10;59.40
39095;DHT22;24840;47.508;19.376;2022-07-18T06:57:06;23.20;58.20
39095;DHT22;24840;47.508;19.376;2022-07-18T06:59:33;23.40;57.00
39095;DHT22;24840;47.508;19.376;2022-07-18T07:01:59;23.70;58.20
39095;DHT22;24840;47.508;19.376;2022-07-18T07:04:25;23.70;56.30
39095;DHT22;24840;47.508;19.376;2022-07-18T07:06:55;23.70;56.80
39095;DHT22;24840;47.508;19.376;2022-07-18T07:09:22;24.00;55.80
39095;DHT22;24840;47.508;19.376;2022-07-18T07:11:48;24.30;54.80
39095;DHT22;24840;47.508;19.376;2022-07-18T07:14:14;24.50;55.40
39095;DHT22;24840;47.508;19.376;2022-07-18T07:16:40;24.40;54.20
39095;DHT22;24840;47.508;19.376;2022-07-18T07:19:06;24.70;54.80
39095;DHT22;24840;47.508;19.376;2022-07-18T07:21:33;25.20;53.60
39095;DHT22;24840;47.508;19.376;2022-07-18T07:24:00;25.20;53.00
39095;DHT22;24840;47.508;19.376;2022-07-18T07:26:26;25.40;53.30
39095;DHT22;24840;47.508;19.376;2022-07-18T07:28:52;25.40;51.20
39095;DHT22;24840;47.508;19.376;2022-07-18T07:31:18;25.00;53.20
39095;DHT22;24840;47.508;19.376;2022-07-18T07:33:44;25.00;52.50
39095;DHT22;24840;47.508;19.376;2022-07-18T07:36:10;25.20;52.90
39095;DHT22;24840;47.508;19.376;2022-07-18T07:38:43;25.30;50.60
39095;DHT22;24840;47.508;19.376;2022-07-18T07:41:09;25.40;51.10
39095;DHT22;24840;47.508;19.376;2022-07-18T07:43:35;25.40;50.10
39095;DHT22;24840;47.508;19.376;2022-07-18T07:46:04;25.90;50.20
39095;DHT22;24840;47.508;19.376;2022-07-18T07:48:31;26.60;49.60
39095;DHT22;24840;47.508;19.376;2022-07-18T07:50:57;26.20;48.90
39095;DHT22;24840;47.508;19.376;2022-07-18T07:53:23;26.20;49.20
39095;DHT22;24840;47.508;19.376;2022-07-18T07:55:49;26.10;49.20
39095;DHT22;24840;47.508;19.376;2022-07-18T07:58:15;26.40;48.10
39095;DHT22;24840;47.508;19.376;2022-07-18T08:00:41;26.40;49.20
39095;DHT22;24840;47.508;19.376;2022-07-18T08:03:08;26.80;48.80
39095;DHT22;24840;47.508;19.376;2022-07-18T08:05:37;26.80;48.50
39095;DHT22;24840;47.508;19.376;2022-07-18T08:08:04;26.60;47.70
39095;DHT22;24840;47.508;19.376;2022-07-18T08:10:30;26.80;49.10
39095;DHT22;24840;47.508;19.376;2022-07-18T08:12:57;27.10;46.40
39095;DHT22;24840;47.508;19.376;2022-07-18T08:15:23;27.00;47.90
39095;DHT22;24840;47.508;19.376;2022-07-18T08:17:50;27.50;46.90
39095;DHT22;24840;47.508;19.376;2022-07-18T08:20:17;27.60;46.00
39095;DHT22;24840;47.508;19.376;2022-07-18T08:22:56;27.70;46.60
39095;DHT22;24840;47.508;19.376;2022-07-18T08:25:23;27.30;45.90
39095;DHT22;24840;47.508;19.376;2022-07-18T08:27:49;27.50;46.30
39095;DHT22;24840;47.508;19.376;2022-07-18T08:30:16;27.20;46.60
39095;DHT22;24840;47.508;19.376;2022-07-18T08:32:42;27.90;47.80
39095;DHT22;24840;47.508;19.376;2022-07-18T08:35:08;28.20;46.70
39095;DHT22;24840;47.508;19.376;2022-07-18T08:37:34;28.50;46.90
39095;DHT22;24840;47.508;19.376;2022-07-18T08:40:10;27.80;43.50
39095;DHT22;24840;47.508;19.376;2022-07-18T08:42:37;28.00;45.40
39095;DHT22;24840;47.508;19.376;2022-07-18T08:45:04;28.20;44.30
39095;DHT22;24840;47.508;19.376;2022-07-18T08:47:31;28.80;44.30
39095;DHT22;24840;47.508;19.376;2022-07-18T08:49:59;29.10;44.70
39095;DHT22;24840;47.508;19.376;2022-07-18T08:52:29;28.60;43.50
39095;DHT22;24840;47.508;19.376;2022-07-18T08:54:56;28.20;44.90
39095;DHT22;24840;47.508;19.376;2022-07-18T08:57:23;28.20;43.80
39095;DHT22;24840;47.508;19.376;2022-07-18T08:59:50;28.70;43.40
39095;DHT22;24840;47.508;19.376;2022-07-18T09:02:16;28.70;42.90
39095;DHT22;24840;47.508;19.376;2022-07-18T09:04:43;27.70;43.10
39095;DHT22;24840;47.508;19.376;2022-07-18T09:07:11;28.00;43.80
39095;DHT22;24840;47.508;19.376;2022-07-18T09:09:54;29.20;43.60
39095;DHT22;24840;47.508;19.376;2022-07-18T09:12:20;28.80;42.40
39095;DHT22;24840;47.508;19.376;2022-07-18T09:14:47;29.30;43.50
39095;DHT22;24840;47.508;19.376;2022-07-18T09:17:29;29.80;41.50
39095;DHT22;24840;47.508;19.376;2022-07-18T09:22:29;30.10;42.90
39095;DHT22;24840;47.508;19.376;2022-07-18T09:30:17;31.50;40.00
39095;DHT22;24840;47.508;19.376;2022-07-18T09:35:35;32.00;39.00
39095;DHT22;24840;47.508;19.376;2022-07-18T09:38:05;31.70;37.40
39095;DHT22;24840;47.508;19.376;2022-07-18T09:40:35;32.00;38.30
39095;DHT22;24840;47.508;19.376;2022-07-18T09:43:09;32.30;38.60
39095;DHT22;24840;47.508;19.376;2022-07-18T09:45:46;32.50;37.00
39095;DHT22;24840;47.508;19.376;2022-07-18T09:48:18;31.70;37.60
39095;DHT22;24840;47.508;19.376;2022-07-18T09:51:03;32.40;37.60
39095;DHT22;24840;47.508;19.376;2022-07-18T09:53:42;31.70;38.50
39095;DHT22;24840;47.508;19.376;2022-07-18T09:56:13;31.10;37.70
39095;DHT22;24840;47.508;19.376;2022-07-18T09:58:53;32.30;39.80
39095;DHT22;24840;47.508;19.376;2022-07-18T10:01:20;31.90;38.30
39095;DHT22;24840;47.508;19.376;2022-07-18T10:03:46;32.40;38.80
39095;DHT22;24840;47.508;19.376;2022-07-18T10:06:15;32.80;38.00
39095;DHT22;24840;47.508;19.376;2022-07-18T10:08:42;32.70;36.90
39095;DHT22;24840;47.508;19.376;2022-07-18T10:11:08;33.40;38.20
39095;DHT22;24840;47.508;19.376;2022-07-18T10:13:36;34.40;36.60
39095;DHT22;24840;47.508;19.376;2022-07-18T10:16:03;33.30;36.90
39095;DHT22;24840;47.508;19.376;2022-07-18T10:18:32;32.60;37.10
39095;DHT22;24840;47.508;19.376;2022-07-18T10:21:11;32.80;35.70
39095;DHT22;24840;47.508;19.376;2022-07-18T10:23:45;32.70;37.30
39095;DHT22;24840;47.508;19.376;2022-07-18T10:26:20;34.30;35.10
39095;DHT22;24840;47.508;19.376;2022-07-18T10:31:28;34.10;34.00
39095;DHT22;24840;47.508;19.376;2022-07-18T10:34:15;34.10;33.70
39095;DHT22;24840;47.508;19.376;2022-07-18T10:39:43;34.30;31.90
39095;DHT22;24840;47.508;19.376;2022-07-18T10:42:14;33.80;33.30
39095;DHT22;24840;47.508;19.376;2022-07-18T10:44:40;34.40;32.80
39095;DHT22;24840;47.508;19.376;2022-07-18T10:47:15;35.00;32.50
39095;DHT22;24840;47.508;19.376;2022-07-18T10:57:32;34.70;33.00
39095;DHT22;24840;47.508;19.376;2022-07-18T11:02:39;34.30;33.20
39095;DHT22;24840;47.508;19.376;2022-07-18T11:16:08;36.30;32.60
39095;DHT22;24840;47.508;19.376;2022-07-18T11:21:27;34.30;35.00
39095;DHT22;24840;47.508;19.376;2022-07-18T11:24:05;33.90;33.10
39095;DHT22;24840;47.508;19.376;2022-07-18T11:26:36;34.90;33.80
39095;DHT22;24840;47.508;19.376;2022-07-18T11:29:10;34.70;33.70
39095;DHT22;24840;47.508;19.376;2022-07-18T11:31:48;36.50;32.40
39095;DHT22;24840;47.508;19.376;2022-07-18T11:34:14;37.10;31.60
39095;DHT22;24840;47.508;19.376;2022-07-18T11:36:45;36.30;31.30
39095;DHT22;24840;47.508;19.376;2022-07-18T11:39:13;36.10;32.00
39095;DHT22;24840;47.508;19.376;2022-07-18T11:41:42;36.10;31.90
39095;DHT22;24840;47.508;19.376;2022-07-18T11:44:18;35.80;31.50
39095;DHT22;24840;47.508;19.376;2022-07-18T11:46:47;34.70;32.50
39095;DHT22;24840;47.508;19.376;2022-07-18T11:49:13;34.30;32.70
39095;DHT22;24840;47.508;19.376;2022-07-18T11:51:42;35.50;32.30
39095;DHT22;24840;47.508;19.376;2022-07-18T11:54:09;35.50;31.60
39095;DHT22;24840;47.508;19.376;2022-07-18T11:56:46;36.00;31.40
39095;DHT22;24840;47.508;19.376;2022-07-18T11:59:13;36.50;32.10
39095;DHT22;24840;47.508;19.376;2022-07-18T12:01:38;35.00;30.90
39095;DHT22;24840;47.508;19.376;2022-07-18T12:04:04;34.60;30.60
39095;DHT22;24840;47.508;19.376;2022-07-18T12:06:30;34.10;32.60
39095;DHT22;24840;47.508;19.376;2022-07-18T12:08:58;33.70;31.70
39095;DHT22;24840;47.508;19.376;2022-07-18T12:11:30;33.50;32.00
39095;DHT22;24840;47.508;19.376;2022-07-18T12:16:32;34.60;32.30
39095;DHT22;24840;47.508;19.376;2022-07-18T12:19:07;35.40;31.50
39095;DHT22;24840;47.508;19.376;2022-07-18T12:21:50;36.40;30.70
39095;DHT22;24840;47.508;19.376;2022-07-18T12:24:24;35.90;30.30
39095;DHT22;24840;47.508;19.376;2022-07-18T12:27:20;35.10;32.80
39095;DHT22;24840;47.508;19.376;2022-07-18T12:29:54;36.70;31.00
39095;DHT22;24840;47.508;19.376;2022-07-18T12:32:25;36.40;31.00
39095;DHT22;24840;47.508;19.376;2022-07-18T12:34:56;35.20;30.00
39095;DHT22;24840;47.508;19.376;2022-07-18T12:37:27;35.10;30.30
39095;DHT22;24840;47.508;19.376;2022-07-18T12:40:02;36.10;30.70
39095;DHT22;24840;47.508;19.376;2022-07-18T12:42:31;36.60;30.00
39095;DHT22;24840;47.508;19.376;2022-07-18T12:44:57;36.80;30.00
39095;DHT22;24840;47.508;19.376;2022-07-18T12:47:23;36.50;30.10
39095;DHT22;24840;47.508;19.376;2022-07-18T12:49:49;37.10;30.00
39095;DHT22;24840;47.508;19.376;2022-07-18T12:52:16;38.10;30.00
39095;DHT22;24840;47.508;19.376;2022-07-18T12:54:42;36.10;29.50
39095;DHT22;24840;47.508;19.376;2022-07-18T12:57:08;35.50;31.60
39095;DHT22;24840;47.508;19.376;2022-07-18T12:59:34;36.50;32.10
39095;DHT22;24840;47.508;19.376;2022-07-18T13:02:00;37.80;29.90
39095;DHT22;24840;47.508;19.376;2022-07-18T13:04:26;37.00;29.60
39095;DHT22;24840;47.508;19.376;2022-07-18T13:06:52;36.50;29.70
39095;DHT22;24840;47.508;19.376;2022-07-18T13:09:18;35.30;29.90
39095;DHT22;24840;47.508;19.376;2022-07-18T13:11:44;35.10;30.80
39095;DHT22;24840;47.508;19.376;2022-07-18T13:14:16;35.10;30.50
39095;DHT22;24840;47.508;19.376;2022-07-18T13:16:43;35.20;31.00
39095;DHT22;24840;47.508;19.376;2022-07-18T13:19:11;34.80;30.10
39095;DHT22;24840;47.508;19.376;2022-07-18T13:21:38;36.00;30.90
39095;DHT22;24840;47.508;19.376;2022-07-18T13:24:04;36.60;30.60
39095;DHT22;24840;47.508;19.376;2022-07-18T13:26:30;36.20;29.60
39095;DHT22;24840;47.508;19.376;2022-07-18T13:28:56;36.20;30.00
39095;DHT22;24840;47.508;19.376;2022-07-18T13:31:22;35.40;29.80
39095;DHT22;24840;47.508;19.376;2022-07-18T13:33:48;35.10;30.50
39095;DHT22;24840;47.508;19.376;2022-07-18T13:36:16;35.50;30.00
39095;DHT22;24840;47.508;19.376;2022-07-18T13:38:43;36.00;30.90
39095;DHT22;24840;47.508;19.376;2022-07-18T13:41:09;36.50;31.20
39095;DHT22;24840;47.508;19.376;2022-07-18T13:43:36;36.80;30.50
39095;DHT22;24840;47.508;19.376;2022-07-18T13:46:09;37.10;30.10
39095;DHT22;24840;47.508;19.376;2022-07-18T13:48:36;37.00;29.90
39095;DHT22;24840;47.508;19.376;2022-07-18T13:51:03;36.60;30.30
39095;DHT22;24840;47.508;19.376;2022-07-18T13:53:30;36.90;30.80
39095;DHT22;24840;47.508;19.376;2022-07-18T13:55:55;37.00;30.80
39095;DHT22;24840;47.508;19.376;2022-07-18T13:58:21;35.90;30.50
39095;DHT22;24840;47.508;19.376;2022-07-18T14:00:48;35.50;30.80
39095;DHT22;24840;47.508;19.376;2022-07-18T14:03:14;36.40;30.50
39095;DHT22;24840;47.508;19.376;2022-07-18T14:05:40;35.80;31.10
39095;DHT22;24840;47.508;19.376;2022-07-18T14:08:07;35.90;30.40
39095;DHT22;24840;47.508;19.376;2022-07-18T14:10:34;35.80;31.00
39095;DHT22;24840;47.508;19.376;2022-07-18T14:13:01;35.00;30.40
39095;DHT22;24840;47.508;19.376;2022-07-18T14:15:27;35.30;31.40
39095;DHT22;24840;47.508;19.376;2022-07-18T14:17:53;35.80;30.90
39095;DHT22;24840;47.508;19.376;2022-07-18T14:20:19;36.40;31.10
39095;DHT22;24840;47.508;19.376;2022-07-18T14:22:47;35.10;30.20
39095;DHT22;24840;47.508;19.376;2022-07-18T14:25:15;34.70;31.70
39095;DHT22;24840;47.508;19.376;2022-07-18T14:27:42;35.10;31.90
39095;DHT22;24840;47.508;19.376;2022-07-18T14:30:10;35.20;30.20
39095;DHT22;24840;47.508;19.376;2022-07-18T14:32:37;34.60;30.60
39095;DHT22;24840;47.508;19.376;2022-07-18T14:35:03;34.70;33.00
39095;DHT22;24840;47.508;19.376;2022-07-18T14:37:30;34.90;32.70
39095;DHT22;24840;47.508;19.376;2022-07-18T14:39:56;35.30;31.00
39095;DHT22;24840;47.508;19.376;2022-07-18T14:42:26;34.70;31.50
39095;DHT22;24840;47.508;19.376;2022-07-18T14:44:52;34.70;31.20
39095;DHT22;24840;47.508;19.376;2022-07-18T14:47:18;35.40;30.80
39095;DHT22;24840;47.508;19.376;2022-07-18T14:49:44;35.30;31.00
39095;DHT22;24840;47.508;19.376;2022-07-18T14:52:10;35.50;30.80
39095;DHT22;24840;47.508;19.376;2022-07-18T14:54:37;35.60;30.30
39095;DHT22;24840;47.508;19.376;2022-07-18T14:57:04;35.60;31.00
39095;DHT22;24840;47.508;19.376;2022-07-18T14:59:31;35.50;31.00
39095;DHT22;24840;47.508;19.376;2022-07-18T15:01:57;35.80;31.90
39095;DHT22;24840;47.508;19.376;2022-07-18T15:04:27;34.40;30.70
39095;DHT22;24840;47.508;19.376;2022-07-18T15:06:53;34.30;31.80
39095;DHT22;24840;47.508;19.376;2022-07-18T15:09:19;35.10;31.80
39095;DHT22;24840;47.508;19.376;2022-07-18T15:11:45;35.10;31.60
39095;DHT22;24840;47.508;19.376;2022-07-18T15:14:11;35.10;32.00
39095;DHT22;24840;47.508;19.376;2022-07-18T15:16:37;34.00;32.00
39095;DHT22;24840;47.508;19.376;2022-07-18T15:19:04;34.30;32.00
39095;DHT22;24840;47.508;19.376;2022-07-18T15:21:30;34.70;32.30
39095;DHT22;24840;47.508;19.376;2022-07-18T15:23:57;34.60;31.90
39095;DHT22;24840;47.508;19.376;2022-07-18T15:26:24;34.60;32.50
39095;DHT22;24840;47.508;19.376;2022-07-18T15:28:50;34.40;31.70
39095;DHT22;24840;47.508;19.376;2022-07-18T15:31:16;34.30;32.10
39095;DHT22;24840;47.508;19.376;2022-07-18T15:33:42;34.00;32.50
39095;DHT22;24840;47.508;19.376;2022-07-18T15:36:08;33.60;33.70
39095;DHT22;24840;47.508;19.376;2022-07-18T15:38:34;33.20;33.70
39095;DHT22;24840;47.508;19.376;2022-07-18T15:41:00;33.10;33.40
39095;DHT22;24840;47.508;19.376;2022-07-18T15:43:26;32.80;32.60
39095;DHT22;24840;47.508;19.376;2022-07-18T15:45:52;32.60;34.10
39095;DHT22;24840;47.508;19.376;2022-07-18T15:48:18;32.10;33.30
39095;DHT22;24840;47.508;19.376;2022-07-18T15:50:44;31.80;34.90
39095;DHT22;24840;47.508;19.376;2022-07-18T15:53:10;32.10;35.30
39095;DHT22;24840;47.508;19.376;2022-07-18T15:55:35;32.80;32.90
39095;DHT22;24840;47.508;19.376;2022-07-18T15:58:01;32.30;33.30
39095;DHT22;24840;47.508;19.376;2022-07-18T16:00:28;32.40;34.00